EGFF

Cardiff International Airport

Cardiff, United Kingdom
METAR EGFF 201220Z 28005KT 240V310 9999 FEW018 16/13 Q1032
Observed Flight Rules
Oct-20 @ 12:20 UTC (31 minutes ago) Visual Flight Rules
Wind Visibility Clouds
280° at 5 knots 10,000+ meters
  • Few at 1,800' AGL
Temperatures Readings
Current 16°C / 61°F
Dewpoint 13°C / 55°F
Humidity 83%
Altimeter 30.47" Hg
Pressure 1032 hPa
Elevation 67
METAR EGFF 201220Z 28005KT 240V310 9999 FEW018 16/13 Q1032
Observed Flight Rules
Oct-20 @ 12:20 UTC
(31 minutes ago)
VFR
Wind Visibility
280° at 5 knots 10,000+ meters
Clouds
  • Few at 1,800' AGL
Temperature Dewpoint
16°C / 61°F 13°C / 55°F
Humidity Altimeter Pressure
83% 30.47" Hg 1032 hPa